sensor_id;sensor_type;location;lat;lon;timestamp;temperature;humidity
10304;DHT22;5197;48.152;8.590;2022-08-16T00:02:18;17.30;12.60
10304;DHT22;5197;48.152;8.590;2022-08-16T00:04:46;17.30;12.90
10304;DHT22;5197;48.152;8.590;2022-08-16T00:07:17;17.30;12.90
10304;DHT22;5197;48.152;8.590;2022-08-16T00:09:44;17.30;13.00
10304;DHT22;5197;48.152;8.590;2022-08-16T00:12:11;17.30;13.20
10304;DHT22;5197;48.152;8.590;2022-08-16T00:14:44;17.30;13.20
10304;DHT22;5197;48.152;8.590;2022-08-16T00:17:12;17.30;13.40
10304;DHT22;5197;48.152;8.590;2022-08-16T00:19:46;17.30;13.30
10304;DHT22;5197;48.152;8.590;2022-08-16T00:22:20;17.30;13.40
10304;DHT22;5197;48.152;8.590;2022-08-16T00:24:52;17.30;13.20
10304;DHT22;5197;48.152;8.590;2022-08-16T00:27:21;17.30;13.30
10304;DHT22;5197;48.152;8.590;2022-08-16T00:29:49;17.20;13.30
10304;DHT22;5197;48.152;8.590;2022-08-16T00:32:37;17.20;13.50
10304;DHT22;5197;48.152;8.590;2022-08-16T00:35:06;17.20;13.70
10304;DHT22;5197;48.152;8.590;2022-08-16T00:37:41;17.20;13.70
10304;DHT22;5197;48.152;8.590;2022-08-16T00:40:29;17.00;14.00
10304;DHT22;5197;48.152;8.590;2022-08-16T00:43:09;17.00;14.00
10304;DHT22;5197;48.152;8.590;2022-08-16T00:48:53;16.90;14.40
10304;DHT22;5197;48.152;8.590;2022-08-16T00:51:21;16.80;15.20
10304;DHT22;5197;48.152;8.590;2022-08-16T00:53:50;16.80;15.30
10304;DHT22;5197;48.152;8.590;2022-08-16T00:56:21;16.80;15.70
10304;DHT22;5197;48.152;8.590;2022-08-16T00:59:10;16.90;15.70
10304;DHT22;5197;48.152;8.590;2022-08-16T01:01:41;16.80;15.50
10304;DHT22;5197;48.152;8.590;2022-08-16T01:04:09;16.80;15.50
10304;DHT22;5197;48.152;8.590;2022-08-16T01:06:56;16.90;15.60
10304;DHT22;5197;48.152;8.590;2022-08-16T01:09:30;16.90;15.70
10304;DHT22;5197;48.152;8.590;2022-08-16T01:12:04;16.90;15.80
10304;DHT22;5197;48.152;8.590;2022-08-16T01:14:49;17.00;15.70
10304;DHT22;5197;48.152;8.590;2022-08-16T01:17:20;17.00;15.60
10304;DHT22;5197;48.152;8.590;2022-08-16T01:19:53;17.00;15.90
10304;DHT22;5197;48.152;8.590;2022-08-16T01:25:21;17.10;15.60
10304;DHT22;5197;48.152;8.590;2022-08-16T01:28:03;17.00;15.90
10304;DHT22;5197;48.152;8.590;2022-08-16T01:30:34;17.00;16.20
10304;DHT22;5197;48.152;8.590;2022-08-16T01:33:07;17.10;16.40
10304;DHT22;5197;48.152;8.590;2022-08-16T01:38:27;17.10;16.60
10304;DHT22;5197;48.152;8.590;2022-08-16T01:40:59;17.00;16.90
10304;DHT22;5197;48.152;8.590;2022-08-16T01:43:28;17.10;17.00
10304;DHT22;5197;48.152;8.590;2022-08-16T01:45:59;17.00;17.00
10304;DHT22;5197;48.152;8.590;2022-08-16T01:48:47;17.10;17.00
10304;DHT22;5197;48.152;8.590;2022-08-16T01:51:16;17.10;17.10
10304;DHT22;5197;48.152;8.590;2022-08-16T01:53:45;17.00;17.10
10304;DHT22;5197;48.152;8.590;2022-08-16T01:56:22;17.10;17.20
10304;DHT22;5197;48.152;8.590;2022-08-16T01:58:52;17.10;17.40
10304;DHT22;5197;48.152;8.590;2022-08-16T02:01:21;17.10;17.40
10304;DHT22;5197;48.152;8.590;2022-08-16T02:03:49;17.10;17.40
10304;DHT22;5197;48.152;8.590;2022-08-16T02:06:18;17.10;17.40
10304;DHT22;5197;48.152;8.590;2022-08-16T02:09:04;17.10;17.60
10304;DHT22;5197;48.152;8.590;2022-08-16T02:11:32;17.10;17.60
10304;DHT22;5197;48.152;8.590;2022-08-16T02:14:15;17.10;17.70
10304;DHT22;5197;48.152;8.590;2022-08-16T02:16:47;17.10;17.70
10304;DHT22;5197;48.152;8.590;2022-08-16T02:19:15;17.10;17.70
10304;DHT22;5197;48.152;8.590;2022-08-16T02:21:53;17.10;17.70
10304;DHT22;5197;48.152;8.590;2022-08-16T02:24:36;17.10;17.50
10304;DHT22;5197;48.152;8.590;2022-08-16T02:27:08;17.10;17.70
10304;DHT22;5197;48.152;8.590;2022-08-16T02:29:35;17.10;17.80
10304;DHT22;5197;48.152;8.590;2022-08-16T02:32:08;17.10;17.80
10304;DHT22;5197;48.152;8.590;2022-08-16T02:34:56;17.10;17.90
10304;DHT22;5197;48.152;8.590;2022-08-16T02:37:23;17.10;18.00
10304;DHT22;5197;48.152;8.590;2022-08-16T02:40:12;17.10;18.00
10304;DHT22;5197;48.152;8.590;2022-08-16T02:42:47;17.10;18.00
10304;DHT22;5197;48.152;8.590;2022-08-16T02:45:19;17.10;17.90
10304;DHT22;5197;48.152;8.590;2022-08-16T02:47:51;17.10;18.00
10304;DHT22;5197;48.152;8.590;2022-08-16T02:50:39;17.00;18.10
10304;DHT22;5197;48.152;8.590;2022-08-16T02:53:26;17.00;18.20
10304;DHT22;5197;48.152;8.590;2022-08-16T02:55:53;17.00;18.20
10304;DHT22;5197;48.152;8.590;2022-08-16T02:58:20;17.00;18.20
10304;DHT22;5197;48.152;8.590;2022-08-16T03:00:52;17.00;18.30
10304;DHT22;5197;48.152;8.590;2022-08-16T03:03:22;17.00;18.50
10304;DHT22;5197;48.152;8.590;2022-08-16T03:05:50;16.90;18.30
10304;DHT22;5197;48.152;8.590;2022-08-16T03:08:19;17.00;18.30
10304;DHT22;5197;48.152;8.590;2022-08-16T03:11:07;16.90;18.40
10304;DHT22;5197;48.152;8.590;2022-08-16T03:13:50;16.90;18.60
10304;DHT22;5197;48.152;8.590;2022-08-16T03:16:22;16.80;18.30
10304;DHT22;5197;48.152;8.590;2022-08-16T03:19:05;16.80;18.50
10304;DHT22;5197;48.152;8.590;2022-08-16T03:21:34;16.70;19.70
10304;DHT22;5197;48.152;8.590;2022-08-16T03:24:08;16.70;18.80
10304;DHT22;5197;48.152;8.590;2022-08-16T03:27:01;16.70;18.90
10304;DHT22;5197;48.152;8.590;2022-08-16T03:29:30;16.70;19.10
10304;DHT22;5197;48.152;8.590;2022-08-16T03:32:00;16.70;19.20
10304;DHT22;5197;48.152;8.590;2022-08-16T03:34:29;16.70;19.30
10304;DHT22;5197;48.152;8.590;2022-08-16T03:36:57;16.70;19.20
10304;DHT22;5197;48.152;8.590;2022-08-16T03:39:24;16.60;19.10
10304;DHT22;5197;48.152;8.590;2022-08-16T03:41:53;16.60;19.10
10304;DHT22;5197;48.152;8.590;2022-08-16T03:44:27;16.60;19.20
10304;DHT22;5197;48.152;8.590;2022-08-16T03:47:14;16.60;19.30
10304;DHT22;5197;48.152;8.590;2022-08-16T03:49:46;16.50;19.20
10304;DHT22;5197;48.152;8.590;2022-08-16T03:52:17;16.50;19.10
10304;DHT22;5197;48.152;8.590;2022-08-16T03:54:46;16.40;19.30
10304;DHT22;5197;48.152;8.590;2022-08-16T03:57:20;16.40;19.40
10304;DHT22;5197;48.152;8.590;2022-08-16T03:59:47;16.40;19.20
10304;DHT22;5197;48.152;8.590;2022-08-16T04:02:16;16.40;19.30
10304;DHT22;5197;48.152;8.590;2022-08-16T04:04:48;16.30;19.40
10304;DHT22;5197;48.152;8.590;2022-08-16T04:07:16;16.20;19.60
10304;DHT22;5197;48.152;8.590;2022-08-16T04:09:43;16.20;19.80
10304;DHT22;5197;48.152;8.590;2022-08-16T04:12:11;16.20;20.00
10304;DHT22;5197;48.152;8.590;2022-08-16T04:14:59;16.10;20.30
10304;DHT22;5197;48.152;8.590;2022-08-16T04:17:28;16.10;20.50
10304;DHT22;5197;48.152;8.590;2022-08-16T04:19:55;16.10;20.60
10304;DHT22;5197;48.152;8.590;2022-08-16T04:22:25;16.10;20.60
10304;DHT22;5197;48.152;8.590;2022-08-16T04:24:53;16.00;20.80
10304;DHT22;5197;48.152;8.590;2022-08-16T04:27:25;16.00;21.00
10304;DHT22;5197;48.152;8.590;2022-08-16T04:29:58;16.00;21.10
10304;DHT22;5197;48.152;8.590;2022-08-16T04:32:29;16.00;21.30
10304;DHT22;5197;48.152;8.590;2022-08-16T04:34:56;15.90;21.20
10304;DHT22;5197;48.152;8.590;2022-08-16T04:37:25;15.90;21.20
10304;DHT22;5197;48.152;8.590;2022-08-16T04:39:54;15.80;21.40
10304;DHT22;5197;48.152;8.590;2022-08-16T04:42:23;15.80;21.60
10304;DHT22;5197;48.152;8.590;2022-08-16T04:44:55;15.80;21.80
10304;DHT22;5197;48.152;8.590;2022-08-16T04:47:28;15.80;22.40
10304;DHT22;5197;48.152;8.590;2022-08-16T04:50:05;15.70;22.50
10304;DHT22;5197;48.152;8.590;2022-08-16T04:52:34;15.70;22.70
10304;DHT22;5197;48.152;8.590;2022-08-16T04:55:11;15.70;23.00
10304;DHT22;5197;48.152;8.590;2022-08-16T04:57:41;15.70;23.00
10304;DHT22;5197;48.152;8.590;2022-08-16T05:00:15;15.70;23.30
10304;DHT22;5197;48.152;8.590;2022-08-16T05:03:01;15.80;23.40
10304;DHT22;5197;48.152;8.590;2022-08-16T05:05:36;15.80;23.90
10304;DHT22;5197;48.152;8.590;2022-08-16T05:08:26;15.80;24.60
10304;DHT22;5197;48.152;8.590;2022-08-16T05:10:58;15.80;24.60
10304;DHT22;5197;48.152;8.590;2022-08-16T05:13:30;15.80;24.60
10304;DHT22;5197;48.152;8.590;2022-08-16T05:16:10;15.80;24.60
10304;DHT22;5197;48.152;8.590;2022-08-16T05:18:47;15.90;24.80
10304;DHT22;5197;48.152;8.590;2022-08-16T05:21:14;15.90;24.80
10304;DHT22;5197;48.152;8.590;2022-08-16T05:23:42;15.90;24.70
10304;DHT22;5197;48.152;8.590;2022-08-16T05:26:23;15.90;24.80
10304;DHT22;5197;48.152;8.590;2022-08-16T05:28:55;16.00;25.80
10304;DHT22;5197;48.152;8.590;2022-08-16T05:31:25;16.00;24.80
10304;DHT22;5197;48.152;8.590;2022-08-16T05:33:57;16.00;24.80
10304;DHT22;5197;48.152;8.590;2022-08-16T05:36:25;16.10;24.90
10304;DHT22;5197;48.152;8.590;2022-08-16T05:39:07;16.10;24.90
10304;DHT22;5197;48.152;8.590;2022-08-16T05:41:36;16.10;24.80
10304;DHT22;5197;48.152;8.590;2022-08-16T05:44:13;16.20;24.90
10304;DHT22;5197;48.152;8.590;2022-08-16T05:46:52;16.20;24.90
10304;DHT22;5197;48.152;8.590;2022-08-16T05:49:22;16.30;25.10
10304;DHT22;5197;48.152;8.590;2022-08-16T05:51:49;16.30;25.00
10304;DHT22;5197;48.152;8.590;2022-08-16T05:54:17;16.30;25.00
10304;DHT22;5197;48.152;8.590;2022-08-16T05:56:52;16.40;25.10
10304;DHT22;5197;48.152;8.590;2022-08-16T05:59:20;16.50;25.10
10304;DHT22;5197;48.152;8.590;2022-08-16T06:01:48;16.60;25.30
10304;DHT22;5197;48.152;8.590;2022-08-16T06:04:20;16.70;25.30
10304;DHT22;5197;48.152;8.590;2022-08-16T06:07:04;16.80;25.40
10304;DHT22;5197;48.152;8.590;2022-08-16T06:09:50;16.90;25.50
10304;DHT22;5197;48.152;8.590;2022-08-16T06:12:18;17.20;25.70
10304;DHT22;5197;48.152;8.590;2022-08-16T06:14:56;17.50;25.90
10304;DHT22;5197;48.152;8.590;2022-08-16T06:17:25;17.80;26.00
10304;DHT22;5197;48.152;8.590;2022-08-16T06:20:15;18.10;26.20
10304;DHT22;5197;48.152;8.590;2022-08-16T06:22:53;18.50;24.40
10304;DHT22;5197;48.152;8.590;2022-08-16T06:25:31;18.90;22.40
10304;DHT22;5197;48.152;8.590;2022-08-16T06:28:07;19.20;20.70
10304;DHT22;5197;48.152;8.590;2022-08-16T06:30:37;19.60;19.10
10304;DHT22;5197;48.152;8.590;2022-08-16T06:33:14;19.90;16.70
10304;DHT22;5197;48.152;8.590;2022-08-16T06:35:51;20.10;14.60
10304;DHT22;5197;48.152;8.590;2022-08-16T06:38:26;20.50;13.60
10304;DHT22;5197;48.152;8.590;2022-08-16T06:41:02;20.80;11.50
10304;DHT22;5197;48.152;8.590;2022-08-16T06:43:30;21.10;10.40
10304;DHT22;5197;48.152;8.590;2022-08-16T06:45:58;21.40;8.60
10304;DHT22;5197;48.152;8.590;2022-08-16T06:48:25;21.70;6.80
10304;DHT22;5197;48.152;8.590;2022-08-16T06:51:04;22.00;5.60
10304;DHT22;5197;48.152;8.590;2022-08-16T06:53:33;22.30;5.80
10304;DHT22;5197;48.152;8.590;2022-08-16T06:56:04;22.60;2.90
10304;DHT22;5197;48.152;8.590;2022-08-16T06:58:50;22.80;1.90
10304;DHT22;5197;48.152;8.590;2022-08-16T07:01:19;23.00;1.00
10304;DHT22;5197;48.152;8.590;2022-08-16T07:04:06;23.20;1.00
10304;DHT22;5197;48.152;8.590;2022-08-16T07:06:41;23.40;1.00
10304;DHT22;5197;48.152;8.590;2022-08-16T07:09:13;23.60;1.00
10304;DHT22;5197;48.152;8.590;2022-08-16T07:11:42;23.80;1.00
10304;DHT22;5197;48.152;8.590;2022-08-16T07:14:17;24.00;1.00
10304;DHT22;5197;48.152;8.590;2022-08-16T07:16:53;24.20;1.00
10304;DHT22;5197;48.152;8.590;2022-08-16T07:19:26;24.40;1.00
10304;DHT22;5197;48.152;8.590;2022-08-16T07:22:15;24.60;1.00
10304;DHT22;5197;48.152;8.590;2022-08-16T07:25:03;24.80;1.00
10304;DHT22;5197;48.152;8.590;2022-08-16T07:27:31;24.90;1.00
10304;DHT22;5197;48.152;8.590;2022-08-16T07:30:05;25.10;1.00
10304;DHT22;5197;48.152;8.590;2022-08-16T07:32:54;25.10;1.00
10304;DHT22;5197;48.152;8.590;2022-08-16T07:35:22;25.00;1.00
10304;DHT22;5197;48.152;8.590;2022-08-16T07:37:49;25.20;1.00
10304;DHT22;5197;48.152;8.590;2022-08-16T07:40:16;25.30;1.00
10304;DHT22;5197;48.152;8.590;2022-08-16T07:42:51;25.60;1.00
10304;DHT22;5197;48.152;8.590;2022-08-16T07:45:18;25.70;1.00
10304;DHT22;5197;48.152;8.590;2022-08-16T07:47:46;25.70;1.00
10304;DHT22;5197;48.152;8.590;2022-08-16T07:50:17;25.40;1.00
10304;DHT22;5197;48.152;8.590;2022-08-16T07:53:04;25.40;1.00
10304;DHT22;5197;48.152;8.590;2022-08-16T07:55:31;25.60;1.00
10304;DHT22;5197;48.152;8.590;2022-08-16T07:58:14;25.90;1.00
10304;DHT22;5197;48.152;8.590;2022-08-16T08:00:44;26.10;1.00
10304;DHT22;5197;48.152;8.590;2022-08-16T08:03:11;26.10;1.00
10304;DHT22;5197;48.152;8.590;2022-08-16T08:05:40;25.90;1.00
10304;DHT22;5197;48.152;8.590;2022-08-16T08:08:08;25.70;1.00
10304;DHT22;5197;48.152;8.590;2022-08-16T08:10:56;25.60;1.00
10304;DHT22;5197;48.152;8.590;2022-08-16T08:13:34;25.60;1.00
10304;DHT22;5197;48.152;8.590;2022-08-16T08:16:08;25.50;1.00
10304;DHT22;5197;48.152;8.590;2022-08-16T08:18:45;25.50;1.00
10304;DHT22;5197;48.152;8.590;2022-08-16T08:21:22;25.60;1.00
10304;DHT22;5197;48.152;8.590;2022-08-16T08:23:53;25.10;1.00
10304;DHT22;5197;48.152;8.590;2022-08-16T08:26:22;25.20;1.00
10304;DHT22;5197;48.152;8.590;2022-08-16T08:28:50;24.70;1.00
10304;DHT22;5197;48.152;8.590;2022-08-16T08:31:19;24.20;1.00
10304;DHT22;5197;48.152;8.590;2022-08-16T08:33:46;23.90;1.00
10304;DHT22;5197;48.152;8.590;2022-08-16T08:36:24;23.70;1.00
10304;DHT22;5197;48.152;8.590;2022-08-16T08:39:00;23.80;1.00
10304;DHT22;5197;48.152;8.590;2022-08-16T08:41:27;23.90;1.00
10304;DHT22;5197;48.152;8.590;2022-08-16T08:43:56;24.10;1.00
10304;DHT22;5197;48.152;8.590;2022-08-16T08:46:25;24.20;1.00
10304;DHT22;5197;48.152;8.590;2022-08-16T08:48:55;24.30;1.00
10304;DHT22;5197;48.152;8.590;2022-08-16T08:51:28;24.30;1.00
10304;DHT22;5197;48.152;8.590;2022-08-16T08:54:06;24.30;1.00
10304;DHT22;5197;48.152;8.590;2022-08-16T08:56:36;24.30;1.00
10304;DHT22;5197;48.152;8.590;2022-08-16T08:59:12;24.20;1.00
10304;DHT22;5197;48.152;8.590;2022-08-16T09:01:47;24.20;1.00
10304;DHT22;5197;48.152;8.590;2022-08-16T09:04:24;24.20;1.00
10304;DHT22;5197;48.152;8.590;2022-08-16T09:06:53;24.30;1.00
10304;DHT22;5197;48.152;8.590;2022-08-16T09:09:23;24.40;1.00
10304;DHT22;5197;48.152;8.590;2022-08-16T09:11:50;24.30;1.00
10304;DHT22;5197;48.152;8.590;2022-08-16T09:14:32;24.20;1.00
10304;DHT22;5197;48.152;8.590;2022-08-16T09:17:00;24.10;1.00
10304;DHT22;5197;48.152;8.590;2022-08-16T09:19:47;24.20;1.00
10304;DHT22;5197;48.152;8.590;2022-08-16T09:22:22;24.30;1.00
10304;DHT22;5197;48.152;8.590;2022-08-16T09:24:50;24.40;1.00
10304;DHT22;5197;48.152;8.590;2022-08-16T09:27:23;24.40;1.00
10304;DHT22;5197;48.152;8.590;2022-08-16T09:29:52;24.40;1.00
10304;DHT22;5197;48.152;8.590;2022-08-16T09:32:27;24.40;1.00
10304;DHT22;5197;48.152;8.590;2022-08-16T09:34:58;24.40;1.00
10304;DHT22;5197;48.152;8.590;2022-08-16T09:37:27;24.40;1.00
10304;DHT22;5197;48.152;8.590;2022-08-16T09:40:05;24.50;1.00
10304;DHT22;5197;48.152;8.590;2022-08-16T09:42:52;24.40;1.00
10304;DHT22;5197;48.152;8.590;2022-08-16T09:45:25;24.40;1.00
10304;DHT22;5197;48.152;8.590;2022-08-16T09:47:54;24.50;1.00
10304;DHT22;5197;48.152;8.590;2022-08-16T09:50:26;24.60;1.00
10304;DHT22;5197;48.152;8.590;2022-08-16T09:53:15;24.70;1.00
10304;DHT22;5197;48.152;8.590;2022-08-16T09:55:45;24.90;1.00
10304;DHT22;5197;48.152;8.590;2022-08-16T09:58:18;25.00;1.00
10304;DHT22;5197;48.152;8.590;2022-08-16T10:01:05;25.00;1.00
10304;DHT22;5197;48.152;8.590;2022-08-16T10:03:37;25.00;1.00
10304;DHT22;5197;48.152;8.590;2022-08-16T10:06:25;25.00;1.00
10304;DHT22;5197;48.152;8.590;2022-08-16T10:09:01;25.00;1.00
10304;DHT22;5197;48.152;8.590;2022-08-16T10:11:33;25.10;1.00
10304;DHT22;5197;48.152;8.590;2022-08-16T10:14:20;25.10;1.00
10304;DHT22;5197;48.152;8.590;2022-08-16T10:16:50;25.00;1.00
10304;DHT22;5197;48.152;8.590;2022-08-16T10:19:29;25.00;1.00
10304;DHT22;5197;48.152;8.590;2022-08-16T10:21:58;25.00;1.00
10304;DHT22;5197;48.152;8.590;2022-08-16T10:24:31;25.00;1.00
10304;DHT22;5197;48.152;8.590;2022-08-16T10:26:59;25.00;1.00
10304;DHT22;5197;48.152;8.590;2022-08-16T10:29:46;25.00;1.00
10304;DHT22;5197;48.152;8.590;2022-08-16T10:32:28;24.90;1.00
10304;DHT22;5197;48.152;8.590;2022-08-16T10:34:57;24.70;1.00
10304;DHT22;5197;48.152;8.590;2022-08-16T10:37:25;24.70;1.00
10304;DHT22;5197;48.152;8.590;2022-08-16T10:40:07;24.70;1.00
10304;DHT22;5197;48.152;8.590;2022-08-16T10:42:56;24.80;1.00
10304;DHT22;5197;48.152;8.590;2022-08-16T10:45:27;24.60;1.00
10304;DHT22;5197;48.152;8.590;2022-08-16T10:48:05;24.50;1.00
10304;DHT22;5197;48.152;8.590;2022-08-16T10:50:53;24.50;1.00
10304;DHT22;5197;48.152;8.590;2022-08-16T10:53:26;24.60;1.00
10304;DHT22;5197;48.152;8.590;2022-08-16T10:56:05;24.70;1.00
10304;DHT22;5197;48.152;8.590;2022-08-16T10:58:53;24.70;1.00
10304;DHT22;5197;48.152;8.590;2022-08-16T11:01:43;24.60;1.00
10304;DHT22;5197;48.152;8.590;2022-08-16T11:04:31;24.60;1.00
10304;DHT22;5197;48.152;8.590;2022-08-16T11:07:18;24.70;1.00
10304;DHT22;5197;48.152;8.590;2022-08-16T11:10:05;24.70;1.00
10304;DHT22;5197;48.152;8.590;2022-08-16T11:12:53;24.90;1.00
10304;DHT22;5197;48.152;8.590;2022-08-16T11:15:20;25.20;1.00
10304;DHT22;5197;48.152;8.590;2022-08-16T11:17:51;25.30;1.00
10304;DHT22;5197;48.152;8.590;2022-08-16T11:20:39;25.30;1.00
10304;DHT22;5197;48.152;8.590;2022-08-16T11:23:16;25.40;1.00
10304;DHT22;5197;48.152;8.590;2022-08-16T11:25:45;25.50;1.00
10304;DHT22;5197;48.152;8.590;2022-08-16T11:28:34;25.50;1.00
10304;DHT22;5197;48.152;8.590;2022-08-16T11:31:21;25.50;1.00
10304;DHT22;5197;48.152;8.590;2022-08-16T11:33:49;25.20;1.00
10304;DHT22;5197;48.152;8.590;2022-08-16T11:36:18;25.30;1.00
10304;DHT22;5197;48.152;8.590;2022-08-16T11:38:54;25.40;1.00
10304;DHT22;5197;48.152;8.590;2022-08-16T11:41:25;25.40;1.00
10304;DHT22;5197;48.152;8.590;2022-08-16T11:43:58;25.20;1.00
10304;DHT22;5197;48.152;8.590;2022-08-16T11:46:26;25.50;1.00
10304;DHT22;5197;48.152;8.590;2022-08-16T11:49:11;25.70;1.00
10304;DHT22;5197;48.152;8.590;2022-08-16T11:51:41;25.90;1.00
10304;DHT22;5197;48.152;8.590;2022-08-16T11:54:12;25.90;1.00
10304;DHT22;5197;48.152;8.590;2022-08-16T11:56:48;25.90;1.00
10304;DHT22;5197;48.152;8.590;2022-08-16T11:59:23;25.90;1.00
10304;DHT22;5197;48.152;8.590;2022-08-16T12:01:56;25.80;1.00
10304;DHT22;5197;48.152;8.590;2022-08-16T12:04:30;25.80;1.00
10304;DHT22;5197;48.152;8.590;2022-08-16T12:06:57;25.90;1.00
10304;DHT22;5197;48.152;8.590;2022-08-16T12:09:24;26.00;1.00
10304;DHT22;5197;48.152;8.590;2022-08-16T12:11:57;26.20;1.00
10304;DHT22;5197;48.152;8.590;2022-08-16T12:14:30;26.30;1.00
10304;DHT22;5197;48.152;8.590;2022-08-16T12:17:04;26.40;1.00
10304;DHT22;5197;48.152;8.590;2022-08-16T12:19:34;26.50;1.00
10304;DHT22;5197;48.152;8.590;2022-08-16T12:22:03;26.50;1.00
10304;DHT22;5197;48.152;8.590;2022-08-16T12:24:32;26.60;1.00
10304;DHT22;5197;48.152;8.590;2022-08-16T12:27:01;26.60;1.00
10304;DHT22;5197;48.152;8.590;2022-08-16T12:29:28;26.70;1.00
10304;DHT22;5197;48.152;8.590;2022-08-16T12:31:56;26.90;1.00
10304;DHT22;5197;48.152;8.590;2022-08-16T12:34:27;27.00;1.00
10304;DHT22;5197;48.152;8.590;2022-08-16T12:36:55;27.20;1.00
10304;DHT22;5197;48.152;8.590;2022-08-16T12:39:22;27.20;1.00
10304;DHT22;5197;48.152;8.590;2022-08-16T12:41:55;27.30;1.00
10304;DHT22;5197;48.152;8.590;2022-08-16T12:44:24;27.50;1.00
10304;DHT22;5197;48.152;8.590;2022-08-16T12:46:57;27.40;1.00
10304;DHT22;5197;48.152;8.590;2022-08-16T12:49:43;27.40;1.00
10304;DHT22;5197;48.152;8.590;2022-08-16T12:52:11;27.40;1.00
10304;DHT22;5197;48.152;8.590;2022-08-16T12:54:58;27.70;1.00
10304;DHT22;5197;48.152;8.590;2022-08-16T12:57:25;27.80;1.00
10304;DHT22;5197;48.152;8.590;2022-08-16T13:00:08;27.80;1.00
10304;DHT22;5197;48.152;8.590;2022-08-16T13:02:52;27.80;1.00
10304;DHT22;5197;48.152;8.590;2022-08-16T13:05:20;27.80;1.00
10304;DHT22;5197;48.152;8.590;2022-08-16T13:07:48;27.70;1.00
10304;DHT22;5197;48.152;8.590;2022-08-16T13:10:19;27.90;1.00
10304;DHT22;5197;48.152;8.590;2022-08-16T13:13:06;28.10;1.00
10304;DHT22;5197;48.152;8.590;2022-08-16T13:15:35;29.70;1.00
10304;DHT22;5197;48.152;8.590;2022-08-16T13:18:24;28.70;1.00
10304;DHT22;5197;48.152;8.590;2022-08-16T13:21:01;29.00;1.00
10304;DHT22;5197;48.152;8.590;2022-08-16T13:23:29;29.10;1.00
10304;DHT22;5197;48.152;8.590;2022-08-16T13:25:57;29.20;1.00
10304;DHT22;5197;48.152;8.590;2022-08-16T13:28:24;29.30;1.00
10304;DHT22;5197;48.152;8.590;2022-08-16T13:30:54;29.40;1.00
10304;DHT22;5197;48.152;8.590;2022-08-16T13:33:29;29.30;1.00
10304;DHT22;5197;48.152;8.590;2022-08-16T13:35:58;28.90;1.00
10304;DHT22;5197;48.152;8.590;2022-08-16T13:38:25;28.60;1.00
10304;DHT22;5197;48.152;8.590;2022-08-16T13:40:58;28.50;1.00
10304;DHT22;5197;48.152;8.590;2022-08-16T13:43:26;28.80;1.00
10304;DHT22;5197;48.152;8.590;2022-08-16T13:45:58;29.00;1.00
10304;DHT22;5197;48.152;8.590;2022-08-16T13:48:31;29.40;1.00
10304;DHT22;5197;48.152;8.590;2022-08-16T13:51:14;29.70;1.00
10304;DHT22;5197;48.152;8.590;2022-08-16T13:53:45;29.90;1.00
10304;DHT22;5197;48.152;8.590;2022-08-16T13:56:21;29.90;1.00
10304;DHT22;5197;48.152;8.590;2022-08-16T13:58:51;30.10;1.00
10304;DHT22;5197;48.152;8.590;2022-08-16T14:01:21;30.30;1.00
10304;DHT22;5197;48.152;8.590;2022-08-16T14:03:48;30.30;1.00
10304;DHT22;5197;48.152;8.590;2022-08-16T14:06:21;30.20;1.00
10304;DHT22;5197;48.152;8.590;2022-08-16T14:08:48;30.00;1.00
10304;DHT22;5197;48.152;8.590;2022-08-16T14:11:31;29.90;1.00
10304;DHT22;5197;48.152;8.590;2022-08-16T14:13:59;29.70;1.00
10304;DHT22;5197;48.152;8.590;2022-08-16T14:16:26;29.70;1.00
10304;DHT22;5197;48.152;8.590;2022-08-16T14:19:01;29.60;1.00
10304;DHT22;5197;48.152;8.590;2022-08-16T14:21:34;29.60;1.00
10304;DHT22;5197;48.152;8.590;2022-08-16T14:24:04;29.60;1.00
10304;DHT22;5197;48.152;8.590;2022-08-16T14:26:48;29.50;1.00
10304;DHT22;5197;48.152;8.590;2022-08-16T14:29:16;29.40;1.00
10304;DHT22;5197;48.152;8.590;2022-08-16T14:31:44;29.50;1.00
10304;DHT22;5197;48.152;8.590;2022-08-16T14:34:19;29.40;1.00
10304;DHT22;5197;48.152;8.590;2022-08-16T14:36:52;29.30;1.00
10304;DHT22;5197;48.152;8.590;2022-08-16T14:39:19;29.20;1.00
10304;DHT22;5197;48.152;8.590;2022-08-16T14:41:48;29.10;1.00
10304;DHT22;5197;48.152;8.590;2022-08-16T14:44:22;29.00;1.00
10304;DHT22;5197;48.152;8.590;2022-08-16T14:46:51;29.00;1.00
10304;DHT22;5197;48.152;8.590;2022-08-16T14:49:19;28.80;1.00
10304;DHT22;5197;48.152;8.590;2022-08-16T14:51:46;28.60;1.00
10304;DHT22;5197;48.152;8.590;2022-08-16T14:54:14;28.20;1.00
10304;DHT22;5197;48.152;8.590;2022-08-16T14:56:41;28.00;1.00
10304;DHT22;5197;48.152;8.590;2022-08-16T14:59:21;28.10;1.00
10304;DHT22;5197;48.152;8.590;2022-08-16T15:01:50;28.40;1.00
10304;DHT22;5197;48.152;8.590;2022-08-16T15:04:28;28.70;1.00
10304;DHT22;5197;48.152;8.590;2022-08-16T15:07:13;28.70;1.00
10304;DHT22;5197;48.152;8.590;2022-08-16T15:09:43;28.60;1.00
10304;DHT22;5197;48.152;8.590;2022-08-16T15:12:28;28.50;1.00
10304;DHT22;5197;48.152;8.590;2022-08-16T15:15:00;28.20;1.00
10304;DHT22;5197;48.152;8.590;2022-08-16T15:17:39;28.00;1.00
10304;DHT22;5197;48.152;8.590;2022-08-16T15:20:08;27.90;1.00
10304;DHT22;5197;48.152;8.590;2022-08-16T15:22:44;27.80;1.00
10304;DHT22;5197;48.152;8.590;2022-08-16T15:25:43;27.90;1.00
10304;DHT22;5197;48.152;8.590;2022-08-16T15:28:24;28.10;1.00
10304;DHT22;5197;48.152;8.590;2022-08-16T15:30:59;28.40;1.00
10304;DHT22;5197;48.152;8.590;2022-08-16T15:33:35;28.80;1.00
10304;DHT22;5197;48.152;8.590;2022-08-16T15:36:11;29.10;1.00
10304;DHT22;5197;48.152;8.590;2022-08-16T15:38:44;29.30;1.00
10304;DHT22;5197;48.152;8.590;2022-08-16T15:41:32;29.30;1.00
10304;DHT22;5197;48.152;8.590;2022-08-16T15:44:22;29.20;1.00
10304;DHT22;5197;48.152;8.590;2022-08-16T15:46:51;29.10;1.00
10304;DHT22;5197;48.152;8.590;2022-08-16T15:49:28;29.00;1.00
10304;DHT22;5197;48.152;8.590;2022-08-16T15:52:09;29.00;1.00
10304;DHT22;5197;48.152;8.590;2022-08-16T15:54:37;29.10;1.00
10304;DHT22;5197;48.152;8.590;2022-08-16T15:57:20;29.30;1.00
10304;DHT22;5197;48.152;8.590;2022-08-16T15:59:48;29.40;1.00
10304;DHT22;5197;48.152;8.590;2022-08-16T16:02:23;29.30;1.00
10304;DHT22;5197;48.152;8.590;2022-08-16T16:04:58;29.40;1.00
10304;DHT22;5197;48.152;8.590;2022-08-16T16:07:28;29.40;1.00
10304;DHT22;5197;48.152;8.590;2022-08-16T16:09:57;29.60;1.00
10304;DHT22;5197;48.152;8.590;2022-08-16T16:12:31;29.80;1.00
10304;DHT22;5197;48.152;8.590;2022-08-16T16:15:22;29.90;1.00
10304;DHT22;5197;48.152;8.590;2022-08-16T16:17:51;29.90;1.00
10304;DHT22;5197;48.152;8.590;2022-08-16T16:20:25;29.80;1.00
10304;DHT22;5197;48.152;8.590;2022-08-16T16:22:58;29.70;1.00
10304;DHT22;5197;48.152;8.590;2022-08-16T16:25:27;29.60;1.00
10304;DHT22;5197;48.152;8.590;2022-08-16T16:27:56;29.50;1.00
10304;DHT22;5197;48.152;8.590;2022-08-16T16:30:28;29.60;1.00
10304;DHT22;5197;48.152;8.590;2022-08-16T16:33:17;29.70;1.00
10304;DHT22;5197;48.152;8.590;2022-08-16T16:35:49;29.60;1.00
10304;DHT22;5197;48.152;8.590;2022-08-16T16:38:24;29.60;1.00
10304;DHT22;5197;48.152;8.590;2022-08-16T16:40:54;29.60;1.00
10304;DHT22;5197;48.152;8.590;2022-08-16T16:43:21;29.50;1.00
10304;DHT22;5197;48.152;8.590;2022-08-16T16:45:57;29.40;1.00
10304;DHT22;5197;48.152;8.590;2022-08-16T16:48:24;29.40;1.00